sensor_id;sensor_type;location;lat;lon;timestamp;pressure;altitude;pressure_sealevel;temperature;humidity
44979;BME280;67464;52.438;-1.904;2023-03-14T00:01:59;97396.66;;;3.49;100.00
44979;BME280;67464;52.438;-1.904;2023-03-14T00:04:24;97403.68;;;3.19;100.00
44979;BME280;67464;52.438;-1.904;2023-03-14T00:06:50;97399.90;;;3.36;100.00
44979;BME280;67464;52.438;-1.904;2023-03-14T00:09:16;97404.71;;;3.52;100.00
44979;BME280;67464;52.438;-1.904;2023-03-14T00:11:41;97407.49;;;3.53;100.00
44979;BME280;67464;52.438;-1.904;2023-03-14T00:14:06;97417.69;;;3.88;100.00
44979;BME280;67464;52.438;-1.904;2023-03-14T00:16:32;97424.39;;;3.77;100.00
44979;BME280;67464;52.438;-1.904;2023-03-14T00:18:58;97424.80;;;3.86;100.00
44979;BME280;67464;52.438;-1.904;2023-03-14T00:21:23;97427.71;;;3.46;100.00
44979;BME280;67464;52.438;-1.904;2023-03-14T00:23:48;97434.45;;;2.52;100.00
44979;BME280;67464;52.438;-1.904;2023-03-14T00:26:16;97448.34;;;2.40;100.00
44979;BME280;67464;52.438;-1.904;2023-03-14T00:28:40;97442.44;;;2.08;100.00
44979;BME280;67464;52.438;-1.904;2023-03-14T00:31:06;97439.88;;;1.95;100.00
44979;BME280;67464;52.438;-1.904;2023-03-14T00:33:30;97452.30;;;2.23;100.00
44979;BME280;67464;52.438;-1.904;2023-03-14T00:35:56;97456.41;;;1.94;100.00
44979;BME280;67464;52.438;-1.904;2023-03-14T00:38:22;97468.77;;;2.06;100.00
44979;BME280;67464;52.438;-1.904;2023-03-14T00:40:47;97484.94;;;2.14;100.00
44979;BME280;67464;52.438;-1.904;2023-03-14T00:43:12;97490.54;;;1.67;100.00
44979;BME280;67464;52.438;-1.904;2023-03-14T00:45:37;97495.35;;;2.22;100.00
44979;BME280;67464;52.438;-1.904;2023-03-14T00:48:03;97512.51;;;1.48;100.00
44979;BME280;67464;52.438;-1.904;2023-03-14T00:50:28;97514.74;;;1.45;100.00
44979;BME280;67464;52.438;-1.904;2023-03-14T00:52:54;97524.02;;;1.76;100.00
44979;BME280;67464;52.438;-1.904;2023-03-14T00:55:19;97522.39;;;2.15;100.00
44979;BME280;67464;52.438;-1.904;2023-03-14T00:57:44;97521.16;;;2.13;100.00
44979;BME280;67464;52.438;-1.904;2023-03-14T01:00:11;97538.93;;;1.62;100.00
44979;BME280;67464;52.438;-1.904;2023-03-14T01:02:35;97542.48;;;1.34;100.00
44979;BME280;67464;52.438;-1.904;2023-03-14T01:05:00;97545.66;;;2.20;100.00
44979;BME280;67464;52.438;-1.904;2023-03-14T01:07:25;97548.10;;;1.98;100.00
44979;BME280;67464;52.438;-1.904;2023-03-14T01:09:51;97556.65;;;1.64;100.00
44979;BME280;67464;52.438;-1.904;2023-03-14T01:12:16;97566.95;;;1.44;100.00
44979;BME280;67464;52.438;-1.904;2023-03-14T01:14:41;97562.25;;;0.39;100.00
44979;BME280;67464;52.438;-1.904;2023-03-14T01:17:07;97565.02;;;0.82;100.00
44979;BME280;67464;52.438;-1.904;2023-03-14T01:19:33;97579.60;;;1.16;100.00
44979;BME280;67464;52.438;-1.904;2023-03-14T01:21:59;97587.33;;;1.12;100.00
44979;BME280;67464;52.438;-1.904;2023-03-14T01:24:25;97588.53;;;1.47;100.00
44979;BME280;67464;52.438;-1.904;2023-03-14T01:26:50;97592.81;;;1.65;100.00
44979;BME280;67464;52.438;-1.904;2023-03-14T01:29:16;97586.89;;;1.43;100.00
44979;BME280;67464;52.438;-1.904;2023-03-14T01:31:41;97592.21;;;1.32;100.00
44979;BME280;67464;52.438;-1.904;2023-03-14T01:34:07;97599.78;;;2.10;100.00
44979;BME280;67464;52.438;-1.904;2023-03-14T01:36:32;97612.65;;;2.30;100.00
44979;BME280;67464;52.438;-1.904;2023-03-14T01:38:58;97611.80;;;1.74;97.38
44979;BME280;67464;52.438;-1.904;2023-03-14T01:41:25;97614.83;;;1.83;96.20
44979;BME280;67464;52.438;-1.904;2023-03-14T01:43:51;97617.94;;;2.06;98.81
44979;BME280;67464;52.438;-1.904;2023-03-14T01:46:24;97625.41;;;1.61;96.26
44979;BME280;67464;52.438;-1.904;2023-03-14T01:48:44;97637.99;;;2.08;100.00
44979;BME280;67464;52.438;-1.904;2023-03-14T01:51:09;97647.36;;;2.60;100.00
44979;BME280;67464;52.438;-1.904;2023-03-14T01:53:32;97651.94;;;2.87;95.54
44979;BME280;67464;52.438;-1.904;2023-03-14T01:55:58;97658.80;;;2.27;91.71
44979;BME280;67464;52.438;-1.904;2023-03-14T01:58:26;97666.78;;;1.84;100.00
44979;BME280;67464;52.438;-1.904;2023-03-14T02:00:49;97661.70;;;1.57;100.00
44979;BME280;67464;52.438;-1.904;2023-03-14T02:03:16;97652.55;;;0.81;100.00
44979;BME280;67464;52.438;-1.904;2023-03-14T02:05:41;97649.28;;;0.68;100.00
44979;BME280;67464;52.438;-1.904;2023-03-14T02:08:07;97651.58;;;0.55;100.00
44979;BME280;67464;52.438;-1.904;2023-03-14T02:10:33;97658.94;;;0.89;100.00
44979;BME280;67464;52.438;-1.904;2023-03-14T02:12:56;97676.67;;;0.79;100.00
44979;BME280;67464;52.438;-1.904;2023-03-14T02:15:20;97685.40;;;1.18;100.00
44979;BME280;67464;52.438;-1.904;2023-03-14T02:17:45;97692.00;;;1.42;100.00
44979;BME280;67464;52.438;-1.904;2023-03-14T02:20:24;97694.31;;;1.34;100.00
44979;BME280;67464;52.438;-1.904;2023-03-14T02:22:38;97690.08;;;1.33;100.00
44979;BME280;67464;52.438;-1.904;2023-03-14T02:25:08;97695.01;;;1.23;100.00
44979;BME280;67464;52.438;-1.904;2023-03-14T02:27:28;97693.93;;;1.48;100.00
44979;BME280;67464;52.438;-1.904;2023-03-14T02:29:56;97704.45;;;1.35;100.00
44979;BME280;67464;52.438;-1.904;2023-03-14T02:32:21;97705.97;;;1.43;100.00
44979;BME280;67464;52.438;-1.904;2023-03-14T02:34:49;97709.60;;;1.16;99.47
44979;BME280;67464;52.438;-1.904;2023-03-14T02:37:10;97724.20;;;1.11;100.00
44979;BME280;67464;52.438;-1.904;2023-03-14T02:39:38;97728.32;;;1.36;96.67
44979;BME280;67464;52.438;-1.904;2023-03-14T02:42:00;97735.23;;;1.20;95.34
44979;BME280;67464;52.438;-1.904;2023-03-14T02:44:25;97747.10;;;1.07;100.00
44979;BME280;67464;52.438;-1.904;2023-03-14T02:46:51;97751.61;;;1.12;100.00
44979;BME280;67464;52.438;-1.904;2023-03-14T02:49:16;97754.90;;;0.97;100.00
44979;BME280;67464;52.438;-1.904;2023-03-14T02:51:41;97753.03;;;0.75;100.00
44979;BME280;67464;52.438;-1.904;2023-03-14T02:54:06;97760.59;;;1.40;100.00
44979;BME280;67464;52.438;-1.904;2023-03-14T02:56:32;97765.80;;;0.83;98.82
44979;BME280;67464;52.438;-1.904;2023-03-14T02:58:56;97773.02;;;0.53;96.27
44979;BME280;67464;52.438;-1.904;2023-03-14T03:01:22;97781.62;;;1.33;92.75
44979;BME280;67464;52.438;-1.904;2023-03-14T03:03:47;97779.01;;;1.16;99.27
44979;BME280;67464;52.438;-1.904;2023-03-14T03:06:12;97784.30;;;0.84;94.57
44979;BME280;67464;52.438;-1.904;2023-03-14T03:08:37;97781.08;;;1.15;93.05
44979;BME280;67464;52.438;-1.904;2023-03-14T03:11:02;97787.06;;;1.10;95.42
44979;BME280;67464;52.438;-1.904;2023-03-14T03:13:27;97796.50;;;0.21;94.25
44979;BME280;67464;52.438;-1.904;2023-03-14T03:15:53;97800.10;;;0.69;96.70
44979;BME280;67464;52.438;-1.904;2023-03-14T03:18:18;97803.94;;;0.56;96.36
44979;BME280;67464;52.438;-1.904;2023-03-14T03:20:43;97810.28;;;1.02;96.11
44979;BME280;67464;52.438;-1.904;2023-03-14T03:23:08;97816.13;;;1.20;93.74
44979;BME280;67464;52.438;-1.904;2023-03-14T03:25:34;97819.15;;;0.80;95.25
44979;BME280;67464;52.438;-1.904;2023-03-14T03:27:58;97824.40;;;0.95;92.64
44979;BME280;67464;52.438;-1.904;2023-03-14T03:30:23;97824.01;;;0.83;94.04
44979;BME280;67464;52.438;-1.904;2023-03-14T03:32:49;97827.32;;;1.00;99.38
44979;BME280;67464;52.438;-1.904;2023-03-14T03:35:14;97826.09;;;0.97;99.09
44979;BME280;67464;52.438;-1.904;2023-03-14T03:37:39;97822.96;;;0.65;100.00
44979;BME280;67464;52.438;-1.904;2023-03-14T03:40:06;97832.77;;;0.51;100.00
44979;BME280;67464;52.438;-1.904;2023-03-14T03:42:29;97848.36;;;0.17;100.00
44979;BME280;67464;52.438;-1.904;2023-03-14T03:44:54;97856.21;;;0.40;100.00
44979;BME280;67464;52.438;-1.904;2023-03-14T03:47:20;97868.17;;;0.21;100.00
44979;BME280;67464;52.438;-1.904;2023-03-14T03:49:45;97868.39;;;0.80;100.00
44979;BME280;67464;52.438;-1.904;2023-03-14T03:52:10;97882.03;;;0.49;100.00
44979;BME280;67464;52.438;-1.904;2023-03-14T03:54:35;97886.17;;;1.34;100.00
44979;BME280;67464;52.438;-1.904;2023-03-14T03:57:00;97890.65;;;1.23;100.00
44979;BME280;67464;52.438;-1.904;2023-03-14T03:59:26;97905.77;;;1.63;100.00
44979;BME280;67464;52.438;-1.904;2023-03-14T04:01:50;97918.75;;;1.26;100.00
44979;BME280;67464;52.438;-1.904;2023-03-14T04:04:16;97925.68;;;1.34;100.00
44979;BME280;67464;52.438;-1.904;2023-03-14T04:06:43;97942.60;;;0.31;100.00
44979;BME280;67464;52.438;-1.904;2023-03-14T04:09:09;97949.94;;;0.72;100.00
44979;BME280;67464;52.438;-1.904;2023-03-14T04:11:35;97965.41;;;0.75;100.00
44979;BME280;67464;52.438;-1.904;2023-03-14T04:14:00;97986.63;;;0.34;100.00
44979;BME280;67464;52.438;-1.904;2023-03-14T04:16:26;98001.77;;;0.62;100.00
44979;BME280;67464;52.438;-1.904;2023-03-14T04:18:50;98010.87;;;1.15;100.00
44979;BME280;67464;52.438;-1.904;2023-03-14T04:21:16;98013.86;;;1.02;100.00
44979;BME280;67464;52.438;-1.904;2023-03-14T04:23:40;98017.53;;;1.14;100.00
44979;BME280;67464;52.438;-1.904;2023-03-14T04:26:06;98028.41;;;1.05;100.00
44979;BME280;67464;52.438;-1.904;2023-03-14T04:28:30;98038.91;;;0.79;100.00
44979;BME280;67464;52.438;-1.904;2023-03-14T04:30:55;98044.01;;;1.24;100.00
44979;BME280;67464;52.438;-1.904;2023-03-14T04:33:21;98052.83;;;1.25;100.00
44979;BME280;67464;52.438;-1.904;2023-03-14T04:35:46;98073.94;;;1.00;100.00
44979;BME280;67464;52.438;-1.904;2023-03-14T04:38:11;98077.47;;;1.77;100.00
44979;BME280;67464;52.438;-1.904;2023-03-14T04:40:36;98079.14;;;0.93;100.00
44979;BME280;67464;52.438;-1.904;2023-03-14T04:43:01;98083.15;;;1.44;100.00
44979;BME280;67464;52.438;-1.904;2023-03-14T04:45:27;98080.56;;;2.06;100.00
44979;BME280;67464;52.438;-1.904;2023-03-14T04:47:53;98089.54;;;1.60;100.00
44979;BME280;67464;52.438;-1.904;2023-03-14T04:50:19;98082.17;;;2.10;100.00
44979;BME280;67464;52.438;-1.904;2023-03-14T04:52:43;98087.87;;;1.98;100.00
44979;BME280;67464;52.438;-1.904;2023-03-14T04:55:09;98093.94;;;1.38;100.00
44979;BME280;67464;52.438;-1.904;2023-03-14T04:57:34;98102.83;;;1.50;100.00
44979;BME280;67464;52.438;-1.904;2023-03-14T04:59:59;98105.92;;;2.13;100.00
44979;BME280;67464;52.438;-1.904;2023-03-14T05:02:24;98115.04;;;2.49;100.00
44979;BME280;67464;52.438;-1.904;2023-03-14T05:04:49;98122.56;;;3.01;100.00
44979;BME280;67464;52.438;-1.904;2023-03-14T05:07:14;98132.49;;;2.36;100.00
44979;BME280;67464;52.438;-1.904;2023-03-14T05:09:39;98138.53;;;2.20;100.00
44979;BME280;67464;52.438;-1.904;2023-03-14T05:12:05;98145.86;;;2.01;100.00
44979;BME280;67464;52.438;-1.904;2023-03-14T05:14:30;98156.71;;;1.97;100.00
44979;BME280;67464;52.438;-1.904;2023-03-14T05:16:56;98160.17;;;2.34;100.00
44979;BME280;67464;52.438;-1.904;2023-03-14T05:19:22;98170.60;;;1.71;100.00
44979;BME280;67464;52.438;-1.904;2023-03-14T05:21:47;98168.92;;;2.57;100.00
44979;BME280;67464;52.438;-1.904;2023-03-14T05:24:11;98178.93;;;2.97;100.00
44979;BME280;67464;52.438;-1.904;2023-03-14T05:26:37;98186.72;;;3.29;100.00
44979;BME280;67464;52.438;-1.904;2023-03-14T05:29:03;98193.27;;;3.63;100.00
44979;BME280;67464;52.438;-1.904;2023-03-14T05:31:29;98196.05;;;3.33;100.00
44979;BME280;67464;52.438;-1.904;2023-03-14T05:33:55;98202.89;;;3.64;100.00
44979;BME280;67464;52.438;-1.904;2023-03-14T05:36:21;98214.17;;;3.20;100.00
44979;BME280;67464;52.438;-1.904;2023-03-14T05:38:47;98223.00;;;3.05;100.00
44979;BME280;67464;52.438;-1.904;2023-03-14T05:41:12;98235.28;;;2.82;100.00
44979;BME280;67464;52.438;-1.904;2023-03-14T05:43:38;98242.92;;;2.97;100.00
44979;BME280;67464;52.438;-1.904;2023-03-14T05:46:03;98254.51;;;2.88;100.00
44979;BME280;67464;52.438;-1.904;2023-03-14T05:48:29;98261.53;;;2.58;100.00
44979;BME280;67464;52.438;-1.904;2023-03-14T05:50:55;98267.59;;;2.16;100.00
44979;BME280;67464;52.438;-1.904;2023-03-14T05:53:19;98277.68;;;2.99;100.00
44979;BME280;67464;52.438;-1.904;2023-03-14T05:55:44;98284.09;;;2.95;100.00
44979;BME280;67464;52.438;-1.904;2023-03-14T05:58:10;98291.65;;;3.60;100.00
44979;BME280;67464;52.438;-1.904;2023-03-14T06:00:35;98302.65;;;2.89;100.00
44979;BME280;67464;52.438;-1.904;2023-03-14T06:03:00;98309.73;;;3.07;100.00
44979;BME280;67464;52.438;-1.904;2023-03-14T06:05:25;98313.94;;;2.15;100.00
44979;BME280;67464;52.438;-1.904;2023-03-14T06:07:50;98323.15;;;2.21;100.00
44979;BME280;67464;52.438;-1.904;2023-03-14T06:10:15;98332.96;;;1.76;100.00
44979;BME280;67464;52.438;-1.904;2023-03-14T06:12:40;98347.00;;;2.73;100.00
44979;BME280;67464;52.438;-1.904;2023-03-14T06:15:06;98354.79;;;3.02;100.00
44979;BME280;67464;52.438;-1.904;2023-03-14T06:17:30;98362.15;;;3.00;100.00
44979;BME280;67464;52.438;-1.904;2023-03-14T06:19:55;98371.04;;;2.02;100.00
44979;BME280;67464;52.438;-1.904;2023-03-14T06:22:20;98387.04;;;2.45;100.00
44979;BME280;67464;52.438;-1.904;2023-03-14T06:24:45;98392.15;;;1.79;100.00
44979;BME280;67464;52.438;-1.904;2023-03-14T06:27:11;98403.78;;;1.92;100.00
44979;BME280;67464;52.438;-1.904;2023-03-14T06:29:36;98413.20;;;2.14;100.00
44979;BME280;67464;52.438;-1.904;2023-03-14T06:32:02;98427.50;;;1.16;100.00
44979;BME280;67464;52.438;-1.904;2023-03-14T06:34:27;98438.01;;;1.96;100.00
44979;BME280;67464;52.438;-1.904;2023-03-14T06:36:52;98454.89;;;1.83;100.00
44979;BME280;67464;52.438;-1.904;2023-03-14T06:39:17;98464.62;;;1.64;100.00
44979;BME280;67464;52.438;-1.904;2023-03-14T06:41:42;98468.82;;;0.86;100.00
44979;BME280;67464;52.438;-1.904;2023-03-14T06:44:07;98478.43;;;1.52;100.00
44979;BME280;67464;52.438;-1.904;2023-03-14T06:46:32;98483.16;;;1.21;100.00
44979;BME280;67464;52.438;-1.904;2023-03-14T06:48:57;98494.75;;;1.41;100.00
44979;BME280;67464;52.438;-1.904;2023-03-14T06:51:23;98492.62;;;2.27;100.00
44979;BME280;67464;52.438;-1.904;2023-03-14T06:53:47;98502.50;;;2.17;100.00
44979;BME280;67464;52.438;-1.904;2023-03-14T06:56:12;98506.64;;;2.60;100.00
44979;BME280;67464;52.438;-1.904;2023-03-14T06:58:38;98517.63;;;2.52;100.00
44979;BME280;67464;52.438;-1.904;2023-03-14T07:01:04;98525.78;;;2.99;100.00
44979;BME280;67464;52.438;-1.904;2023-03-14T07:03:28;98534.76;;;2.61;100.00
44979;BME280;67464;52.438;-1.904;2023-03-14T07:05:54;98540.73;;;2.37;100.00
44979;BME280;67464;52.438;-1.904;2023-03-14T07:08:18;98545.83;;;2.96;100.00
44979;BME280;67464;52.438;-1.904;2023-03-14T07:10:44;98550.72;;;3.34;100.00
44979;BME280;67464;52.438;-1.904;2023-03-14T07:13:09;98556.82;;;3.56;100.00
44979;BME280;67464;52.438;-1.904;2023-03-14T07:15:35;98571.49;;;4.00;99.28
44979;BME280;67464;52.438;-1.904;2023-03-14T07:17:59;98577.39;;;3.93;100.00
44979;BME280;67464;52.438;-1.904;2023-03-14T07:20:24;98590.08;;;3.28;100.00
44979;BME280;67464;52.438;-1.904;2023-03-14T07:22:50;98600.58;;;3.43;100.00
44979;BME280;67464;52.438;-1.904;2023-03-14T07:25:15;98616.76;;;2.28;100.00
44979;BME280;67464;52.438;-1.904;2023-03-14T07:27:40;98628.17;;;2.35;100.00
44979;BME280;67464;52.438;-1.904;2023-03-14T07:30:06;98634.87;;;2.43;100.00
44979;BME280;67464;52.438;-1.904;2023-03-14T07:32:30;98639.61;;;2.39;100.00
44979;BME280;67464;52.438;-1.904;2023-03-14T07:34:55;98645.94;;;2.35;100.00
44979;BME280;67464;52.438;-1.904;2023-03-14T07:37:20;98651.83;;;2.95;100.00
44979;BME280;67464;52.438;-1.904;2023-03-14T07:39:46;98657.70;;;2.94;100.00
44979;BME280;67464;52.438;-1.904;2023-03-14T07:42:11;98664.80;;;3.87;100.00
44979;BME280;67464;52.438;-1.904;2023-03-14T07:44:37;98673.40;;;4.26;100.00
44979;BME280;67464;52.438;-1.904;2023-03-14T07:47:02;98674.60;;;5.09;94.76
44979;BME280;67464;52.438;-1.904;2023-03-14T07:49:27;98674.36;;;5.72;82.01
44979;BME280;67464;52.438;-1.904;2023-03-14T07:51:53;98686.02;;;6.58;81.14
44979;BME280;67464;52.438;-1.904;2023-03-14T07:54:18;98692.62;;;7.15;79.21
44979;BME280;67464;52.438;-1.904;2023-03-14T07:56:44;98695.33;;;6.70;77.68
44979;BME280;67464;52.438;-1.904;2023-03-14T07:59:09;98699.46;;;7.63;72.17
44979;BME280;67464;52.438;-1.904;2023-03-14T08:01:35;98711.58;;;7.94;68.67
44979;BME280;67464;52.438;-1.904;2023-03-14T08:04:00;98724.79;;;9.01;66.36
44979;BME280;67464;52.438;-1.904;2023-03-14T08:06:26;98726.64;;;11.89;55.96
44979;BME280;67464;52.438;-1.904;2023-03-14T08:08:51;98740.65;;;12.05;53.57
44979;BME280;67464;52.438;-1.904;2023-03-14T08:11:17;98755.13;;;10.85;55.46
44979;BME280;67464;52.438;-1.904;2023-03-14T08:13:43;98767.01;;;9.07;61.89
44979;BME280;67464;52.438;-1.904;2023-03-14T08:16:09;98773.26;;;7.59;67.40
44979;BME280;67464;52.438;-1.904;2023-03-14T08:18:34;98782.41;;;6.76;73.59
44979;BME280;67464;52.438;-1.904;2023-03-14T08:21:00;98793.46;;;5.76;84.77
44979;BME280;67464;52.438;-1.904;2023-03-14T08:23:26;98810.20;;;5.54;87.09
44979;BME280;67464;52.438;-1.904;2023-03-14T08:25:52;98813.85;;;5.50;93.47
44979;BME280;67464;52.438;-1.904;2023-03-14T08:28:18;98809.91;;;5.11;90.77
44979;BME280;67464;52.438;-1.904;2023-03-14T08:30:42;98818.74;;;5.69;92.43
44979;BME280;67464;52.438;-1.904;2023-03-14T08:33:08;98816.67;;;6.54;76.46
44979;BME280;67464;52.438;-1.904;2023-03-14T08:35:34;98823.46;;;7.26;77.93
44979;BME280;67464;52.438;-1.904;2023-03-14T08:37:58;98825.94;;;9.21;61.15
44979;BME280;67464;52.438;-1.904;2023-03-14T08:40:24;98827.40;;;12.46;51.92
44979;BME280;67464;52.438;-1.904;2023-03-14T08:42:50;98836.34;;;13.24;46.03
44979;BME280;67464;52.438;-1.904;2023-03-14T08:45:16;98847.65;;;14.73;44.23
44979;BME280;67464;52.438;-1.904;2023-03-14T08:47:41;98858.32;;;11.74;47.51
44979;BME280;67464;52.438;-1.904;2023-03-14T08:50:08;98859.80;;;11.33;46.58
44979;BME280;67464;52.438;-1.904;2023-03-14T08:52:32;98877.28;;;11.16;50.75
44979;BME280;67464;52.438;-1.904;2023-03-14T08:54:57;98885.20;;;11.38;50.39
44979;BME280;67464;52.438;-1.904;2023-03-14T08:57:23;98897.69;;;10.03;52.80
44979;BME280;67464;52.438;-1.904;2023-03-14T08:59:48;98902.92;;;8.27;56.48
44979;BME280;67464;52.438;-1.904;2023-03-14T09:02:14;98912.07;;;8.65;58.62
44979;BME280;67464;52.438;-1.904;2023-03-14T09:04:39;98920.46;;;8.31;59.09
44979;BME280;67464;52.438;-1.904;2023-03-14T09:07:05;98926.26;;;8.71;60.38
44979;BME280;67464;52.438;-1.904;2023-03-14T09:09:31;98934.55;;;7.60;65.24
44979;BME280;67464;52.438;-1.904;2023-03-14T09:11:58;98935.90;;;7.73;62.57
44979;BME280;67464;52.438;-1.904;2023-03-14T09:14:23;98940.85;;;7.82;63.66
44979;BME280;67464;52.438;-1.904;2023-03-14T09:16:49;98947.10;;;8.16;57.78
44979;BME280;67464;52.438;-1.904;2023-03-14T09:19:14;98946.69;;;10.35;52.79
44979;BME280;67464;52.438;-1.904;2023-03-14T09:21:40;98950.48;;;10.98;51.12
44979;BME280;67464;52.438;-1.904;2023-03-14T09:24:06;98948.10;;;12.32;46.78
44979;BME280;67464;52.438;-1.904;2023-03-14T09:26:31;98954.10;;;12.93;44.84
44979;BME280;67464;52.438;-1.904;2023-03-14T09:28:57;98958.91;;;12.97;43.61
44979;BME280;67464;52.438;-1.904;2023-03-14T09:31:23;98972.20;;;14.71;42.81
44979;BME280;67464;52.438;-1.904;2023-03-14T09:33:48;98978.96;;;14.56;43.69
44979;BME280;67464;52.438;-1.904;2023-03-14T09:36:13;98990.57;;;12.30;44.38
44979;BME280;67464;52.438;-1.904;2023-03-14T09:38:39;98998.95;;;9.37;49.65
44979;BME280;67464;52.438;-1.904;2023-03-14T09:41:13;99006.56;;;8.12;55.69
44979;BME280;67464;52.438;-1.904;2023-03-14T09:43:31;99021.90;;;7.68;55.03
44979;BME280;67464;52.438;-1.904;2023-03-14T09:45:57;99028.71;;;9.85;53.99
44979;BME280;67464;52.438;-1.904;2023-03-14T09:48:23;99027.26;;;7.97;55.81
44979;BME280;67464;52.438;-1.904;2023-03-14T09:50:50;99025.01;;;8.01;54.31
44979;BME280;67464;52.438;-1.904;2023-03-14T09:53:16;99031.02;;;11.35;48.71
44979;BME280;67464;52.438;-1.904;2023-03-14T09:55:39;99030.40;;;11.09;47.32
44979;BME280;67464;52.438;-1.904;2023-03-14T09:58:09;99027.48;;;12.24;44.77
44979;BME280;67464;52.438;-1.904;2023-03-14T10:00:31;99036.23;;;11.16;45.41
44979;BME280;67464;52.438;-1.904;2023-03-14T10:02:57;99037.86;;;13.65;40.93
44979;BME280;67464;52.438;-1.904;2023-03-14T10:05:23;99045.14;;;14.96;39.34
44979;BME280;67464;52.438;-1.904;2023-03-14T10:07:46;99045.90;;;13.92;41.34
44979;BME280;67464;52.438;-1.904;2023-03-14T10:10:15;99049.92;;;13.52;41.40
44979;BME280;67464;52.438;-1.904;2023-03-14T10:12:37;99062.07;;;13.41;42.87
44979;BME280;67464;52.438;-1.904;2023-03-14T10:15:05;99059.81;;;15.26;40.02
44979;BME280;67464;52.438;-1.904;2023-03-14T10:17:28;99059.14;;;16.37;36.28
44979;BME280;67464;52.438;-1.904;2023-03-14T10:19:56;99058.46;;;17.11;36.26
44979;BME280;67464;52.438;-1.904;2023-03-14T10:22:20;99066.23;;;15.54;33.08
44979;BME280;67464;52.438;-1.904;2023-03-14T10:24:47;99069.69;;;17.52;34.21
44979;BME280;67464;52.438;-1.904;2023-03-14T10:27:17;99078.74;;;18.18;32.59
44979;BME280;67464;52.438;-1.904;2023-03-14T10:29:51;99079.27;;;17.12;32.32
44979;BME280;67464;52.438;-1.904;2023-03-14T10:32:03;99094.91;;;15.88;33.94
44979;BME280;67464;52.438;-1.904;2023-03-14T10:34:28;99104.77;;;14.51;33.27
44979;BME280;67464;52.438;-1.904;2023-03-14T10:36:54;99100.54;;;14.27;35.31
44979;BME280;67464;52.438;-1.904;2023-03-14T10:39:27;99119.56;;;14.11;34.84
44979;BME280;67464;52.438;-1.904;2023-03-14T10:41:47;99125.31;;;12.42;36.01
44979;BME280;67464;52.438;-1.904;2023-03-14T10:44:12;99127.73;;;14.09;35.42
44979;BME280;67464;52.438;-1.904;2023-03-14T10:46:35;99120.87;;;14.64;32.89
44979;BME280;67464;52.438;-1.904;2023-03-14T10:49:05;99125.77;;;15.47;33.87
44979;BME280;67464;52.438;-1.904;2023-03-14T10:51:27;99129.84;;;15.22;33.65
44979;BME280;67464;52.438;-1.904;2023-03-14T10:53:57;99126.64;;;15.85;30.65
44979;BME280;67464;52.438;-1.904;2023-03-14T10:56:19;99135.76;;;16.42;31.86
44979;BME280;67464;52.438;-1.904;2023-03-14T10:58:44;99137.87;;;15.78;30.21
44979;BME280;67464;52.438;-1.904;2023-03-14T11:01:21;99136.37;;;17.47;30.40
44979;BME280;67464;52.438;-1.904;2023-03-14T11:03:35;99147.21;;;16.50;30.08
44979;BME280;67464;52.438;-1.904;2023-03-14T11:06:03;99155.02;;;16.01;32.87
44979;BME280;67464;52.438;-1.904;2023-03-14T11:08:29;99164.62;;;15.96;31.22
44979;BME280;67464;52.438;-1.904;2023-03-14T11:10:54;99168.93;;;16.27;29.00
44979;BME280;67464;52.438;-1.904;2023-03-14T11:13:18;99169.31;;;16.73;31.71
44979;BME280;67464;52.438;-1.904;2023-03-14T11:15:45;99169.27;;;15.79;29.23
44979;BME280;67464;52.438;-1.904;2023-03-14T11:18:18;99172.11;;;15.59;31.57
44979;BME280;67464;52.438;-1.904;2023-03-14T11:20:37;99167.55;;;15.13;32.72
44979;BME280;67464;52.438;-1.904;2023-03-14T11:23:01;99179.50;;;14.71;32.38
44979;BME280;67464;52.438;-1.904;2023-03-14T11:25:27;99183.49;;;15.14;30.39
44979;BME280;67464;52.438;-1.904;2023-03-14T11:27:53;99186.51;;;15.83;31.64
44979;BME280;67464;52.438;-1.904;2023-03-14T11:30:18;99196.40;;;15.21;31.19
44979;BME280;67464;52.438;-1.904;2023-03-14T11:32:44;99198.15;;;15.27;30.62
44979;BME280;67464;52.438;-1.904;2023-03-14T11:35:14;99205.29;;;15.56;30.72
44979;BME280;67464;52.438;-1.904;2023-03-14T11:37:33;99202.45;;;15.38;30.75
44979;BME280;67464;52.438;-1.904;2023-03-14T11:40:00;99207.76;;;14.59;32.89
44979;BME280;67464;52.438;-1.904;2023-03-14T11:42:21;99206.01;;;14.55;32.52
44979;BME280;67464;52.438;-1.904;2023-03-14T11:44:48;99210.20;;;13.78;36.38
44979;BME280;67464;52.438;-1.904;2023-03-14T11:47:15;99209.67;;;13.79;32.60
44979;BME280;67464;52.438;-1.904;2023-03-14T11:49:42;99212.53;;;14.17;33.67
44979;BME280;67464;52.438;-1.904;2023-03-14T11:52:07;99214.04;;;12.87;36.71
44979;BME280;67464;52.438;-1.904;2023-03-14T11:54:34;99214.98;;;12.33;35.35
44979;BME280;67464;52.438;-1.904;2023-03-14T11:56:57;99217.60;;;12.84;34.95
44979;BME280;67464;52.438;-1.904;2023-03-14T11:59:23;99211.08;;;12.20;34.26
44979;BME280;67464;52.438;-1.904;2023-03-14T12:01:52;99213.07;;;12.35;34.21
44979;BME280;67464;52.438;-1.904;2023-03-14T12:04:15;99217.57;;;10.94;35.74
44979;BME280;67464;52.438;-1.904;2023-03-14T12:06:38;99218.04;;;12.18;37.08
44979;BME280;67464;52.438;-1.904;2023-03-14T12:09:03;99212.30;;;12.32;35.43
44979;BME280;67464;52.438;-1.904;2023-03-14T12:11:33;99210.55;;;13.73;33.77
44979;BME280;67464;52.438;-1.904;2023-03-14T12:13:53;99205.27;;;13.92;33.12
44979;BME280;67464;52.438;-1.904;2023-03-14T12:16:30;99205.54;;;13.09;32.79
44979;BME280;67464;52.438;-1.904;2023-03-14T12:18:44;99208.04;;;12.77;31.35
44979;BME280;67464;52.438;-1.904;2023-03-14T12:21:11;99213.63;;;12.59;33.97
44979;BME280;67464;52.438;-1.904;2023-03-14T12:23:37;99207.73;;;13.55;33.10
44979;BME280;67464;52.438;-1.904;2023-03-14T12:26:15;99207.88;;;13.86;31.88
44979;BME280;67464;52.438;-1.904;2023-03-14T12:28:30;99218.21;;;12.98;32.03
44979;BME280;67464;52.438;-1.904;2023-03-14T12:30:51;99227.31;;;12.46;34.80
44979;BME280;67464;52.438;-1.904;2023-03-14T12:33:28;99219.35;;;11.30;33.93
44979;BME280;67464;52.438;-1.904;2023-03-14T12:35:45;99217.48;;;10.82;33.40
44979;BME280;67464;52.438;-1.904;2023-03-14T12:38:10;99223.97;;;10.20;36.36
44979;BME280;67464;52.438;-1.904;2023-03-14T12:40:37;99233.91;;;10.55;34.58
44979;BME280;67464;52.438;-1.904;2023-03-14T12:43:00;99221.58;;;11.86;33.69